Volga, West Virginia
Current Conditions -  °F | °C
As of 2:15 AM on Wednesday 22 Oct 2014 (Local Time) from KW22 Reporting Station
Drizzle Drizzle  
Wind Chill: 43°   Ceiling: 300
Heat Index: 43°   Visibility: 2mi
Dew Point: 43°   Wind: 0mph
Humidity: 100%   Direction: NA
Pressure: 30.03"   Gusts: NA
Location:  39.08°N, 80.14°W
Report Text: KW22 220615Z AUTO 00000KT 2SM -DZ OVC003 06/06 A3003 RMK AO2
Loading
Personal Weather Stations






























Interactive Weather Map
Tropical Storm Tracking
New forecast layout! Learn more

10-Day Weather Forecast

Advertisements
Track Severe Weather on mobile